sensor_id;sensor_type;location;lat;lon;timestamp;pressure;altitude;pressure_sealevel;temperature
78859;BMP280;68210;52.032;4.634;2023-11-19T00:01:41;100529.72;;;14.34
78859;BMP280;68210;52.032;4.634;2023-11-19T00:03:42;100516.06;;;14.31
78859;BMP280;68210;52.032;4.634;2023-11-19T00:05:42;100521.50;;;14.31
78859;BMP280;68210;52.032;4.634;2023-11-19T00:07:42;100513.69;;;14.29
78859;BMP280;68210;52.032;4.634;2023-11-19T00:09:43;100524.59;;;14.26
78859;BMP280;68210;52.032;4.634;2023-11-19T00:11:43;100530.06;;;14.26
78859;BMP280;68210;52.032;4.634;2023-11-19T00:13:44;100535.88;;;14.28
78859;BMP280;68210;52.032;4.634;2023-11-19T00:15:45;100537.47;;;14.29
78859;BMP280;68210;52.032;4.634;2023-11-19T00:17:46;100549.13;;;14.26
78859;BMP280;68210;52.032;4.634;2023-11-19T00:19:47;100561.59;;;14.30
78859;BMP280;68210;52.032;4.634;2023-11-19T00:21:49;100552.22;;;14.25
78859;BMP280;68210;52.032;4.634;2023-11-19T00:23:49;100556.91;;;14.24
78859;BMP280;68210;52.032;4.634;2023-11-19T00:25:50;100547.19;;;14.27
78859;BMP280;68210;52.032;4.634;2023-11-19T00:27:50;100526.16;;;14.27
78859;BMP280;68210;52.032;4.634;2023-11-19T00:29:51;100522.25;;;14.28
78859;BMP280;68210;52.032;4.634;2023-11-19T00:31:52;100549.50;;;14.25
78859;BMP280;68210;52.032;4.634;2023-11-19T00:33:52;100539.78;;;14.24
78859;BMP280;68210;52.032;4.634;2023-11-19T00:35:52;100525.31;;;14.20
78859;BMP280;68210;52.032;4.634;2023-11-19T00:37:53;100530.75;;;14.16
78859;BMP280;68210;52.032;4.634;2023-11-19T00:39:54;100520.25;;;14.18
78859;BMP280;68210;52.032;4.634;2023-11-19T00:41:56;100519.84;;;14.16
78859;BMP280;68210;52.032;4.634;2023-11-19T00:43:56;100528.78;;;14.13
78859;BMP280;68210;52.032;4.634;2023-11-19T00:45:57;100520.59;;;14.13
78859;BMP280;68210;52.032;4.634;2023-11-19T00:47:57;100523.69;;;14.08
78859;BMP280;68210;52.032;4.634;2023-11-19T00:49:59;100525.22;;;14.06
78859;BMP280;68210;52.032;4.634;2023-11-19T00:51:59;100529.91;;;14.05
78859;BMP280;68210;52.032;4.634;2023-11-19T00:54:00;100529.97;;;14.12
78859;BMP280;68210;52.032;4.634;2023-11-19T00:56:01;100509.69;;;14.10
78859;BMP280;68210;52.032;4.634;2023-11-19T00:58:01;100504.19;;;14.06
78859;BMP280;68210;52.032;4.634;2023-11-19T01:00:07;100506.53;;;14.04
78859;BMP280;68210;52.032;4.634;2023-11-19T01:02:19;100501.47;;;14.06
78859;BMP280;68210;52.032;4.634;2023-11-19T01:04:20;100500.25;;;14.00
78859;BMP280;68210;52.032;4.634;2023-11-19T01:06:27;100500.31;;;14.07
78859;BMP280;68210;52.032;4.634;2023-11-19T01:08:28;100499.56;;;14.07
78859;BMP280;68210;52.032;4.634;2023-11-19T01:10:28;100494.06;;;14.03
78859;BMP280;68210;52.032;4.634;2023-11-19T01:12:29;100508.44;;;14.04
78859;BMP280;68210;52.032;4.634;2023-11-19T01:14:31;100495.59;;;14.01
78859;BMP280;68210;52.032;4.634;2023-11-19T01:16:31;100502.63;;;14.05
78859;BMP280;68210;52.032;4.634;2023-11-19T01:18:31;100493.66;;;14.01
78859;BMP280;68210;52.032;4.634;2023-11-19T01:20:32;100504.94;;;14.00
78859;BMP280;68210;52.032;4.634;2023-11-19T01:22:34;100495.13;;;13.92
78859;BMP280;68210;52.032;4.634;2023-11-19T01:24:35;100492.78;;;13.91
78859;BMP280;68210;52.032;4.634;2023-11-19T01:26:35;100488.47;;;13.90
78859;BMP280;68210;52.032;4.634;2023-11-19T01:28:36;100490.78;;;13.88
78859;BMP280;68210;52.032;4.634;2023-11-19T01:30:37;100492.31;;;13.82
78859;BMP280;68210;52.032;4.634;2023-11-19T01:32:37;100512.16;;;13.82
78859;BMP280;68210;52.032;4.634;2023-11-19T01:34:37;100504.03;;;13.89
78859;BMP280;68210;52.032;4.634;2023-11-19T01:36:38;100502.50;;;13.88
78859;BMP280;68210;52.032;4.634;2023-11-19T01:38:39;100494.28;;;13.85
78859;BMP280;68210;52.032;4.634;2023-11-19T01:40:39;100500.47;;;13.82
78859;BMP280;68210;52.032;4.634;2023-11-19T01:42:40;100497.38;;;13.83
78859;BMP280;68210;52.032;4.634;2023-11-19T01:44:41;100512.56;;;13.81
78859;BMP280;68210;52.032;4.634;2023-11-19T01:46:44;100505.91;;;13.75
78859;BMP280;68210;52.032;4.634;2023-11-19T01:48:45;100492.28;;;13.78
78859;BMP280;68210;52.032;4.634;2023-11-19T01:50:46;100515.97;;;13.74
78859;BMP280;68210;52.032;4.634;2023-11-19T01:52:46;100494.50;;;13.66
78859;BMP280;68210;52.032;4.634;2023-11-19T01:54:47;100489.47;;;13.68
78859;BMP280;68210;52.032;4.634;2023-11-19T01:56:47;100491.78;;;13.66
78859;BMP280;68210;52.032;4.634;2023-11-19T01:58:48;100466.94;;;13.74
78859;BMP280;68210;52.032;4.634;2023-11-19T02:00:49;100503.94;;;13.72
78859;BMP280;68210;52.032;4.634;2023-11-19T02:02:50;100503.09;;;13.65
78859;BMP280;68210;52.032;4.634;2023-11-19T02:04:52;100507.34;;;13.62
78859;BMP280;68210;52.032;4.634;2023-11-19T02:06:56;100510.84;;;13.63
78859;BMP280;68210;52.032;4.634;2023-11-19T02:08:56;100525.56;;;13.58
78859;BMP280;68210;52.032;4.634;2023-11-19T02:10:57;100524.09;;;13.64
78859;BMP280;68210;52.032;4.634;2023-11-19T02:13:01;100537.28;;;13.62
78859;BMP280;68210;52.032;4.634;2023-11-19T02:15:02;100541.53;;;13.56
78859;BMP280;68210;52.032;4.634;2023-11-19T02:17:03;100539.91;;;13.48
78859;BMP280;68210;52.032;4.634;2023-11-19T02:19:04;100528.25;;;13.51
78859;BMP280;68210;52.032;4.634;2023-11-19T02:21:06;100532.59;;;13.59
78859;BMP280;68210;52.032;4.634;2023-11-19T02:23:06;100517.78;;;13.53
78859;BMP280;68210;52.032;4.634;2023-11-19T02:25:12;100525.53;;;13.51
78859;BMP280;68210;52.032;4.634;2023-11-19T02:27:31;100532.91;;;13.51
78859;BMP280;68210;52.032;4.634;2023-11-19T02:29:32;100526.63;;;13.43
78859;BMP280;68210;52.032;4.634;2023-11-19T02:31:35;100519.19;;;13.40
78859;BMP280;68210;52.032;4.634;2023-11-19T02:33:37;100527.38;;;13.44
78859;BMP280;68210;52.032;4.634;2023-11-19T02:35:37;100531.28;;;13.43
78859;BMP280;68210;52.032;4.634;2023-11-19T02:37:38;100521.91;;;13.37
78859;BMP280;68210;52.032;4.634;2023-11-19T02:39:39;100521.41;;;13.32
78859;BMP280;68210;52.032;4.634;2023-11-19T02:41:39;100514.75;;;13.26
78859;BMP280;68210;52.032;4.634;2023-11-19T02:43:39;100516.72;;;13.29
78859;BMP280;68210;52.032;4.634;2023-11-19T02:45:40;100518.31;;;13.30
78859;BMP280;68210;52.032;4.634;2023-11-19T02:47:41;100516.34;;;13.27
78859;BMP280;68210;52.032;4.634;2023-11-19T02:49:44;100510.47;;;13.25
78859;BMP280;68210;52.032;4.634;2023-11-19T02:51:44;100508.16;;;13.27
78859;BMP280;68210;52.032;4.634;2023-11-19T02:53:45;100500.75;;;13.24
78859;BMP280;68210;52.032;4.634;2023-11-19T02:55:48;100503.41;;;13.20
78859;BMP280;68210;52.032;4.634;2023-11-19T02:57:50;100517.78;;;13.17
78859;BMP280;68210;52.032;4.634;2023-11-19T02:59:53;100506.44;;;13.12
78859;BMP280;68210;52.032;4.634;2023-11-19T03:01:57;100509.25;;;13.19
78859;BMP280;68210;52.032;4.634;2023-11-19T03:03:57;100505.69;;;13.15
78859;BMP280;68210;52.032;4.634;2023-11-19T03:05:58;100517.00;;;13.17
78859;BMP280;68210;52.032;4.634;2023-11-19T03:07:58;100516.56;;;13.11
78859;BMP280;68210;52.032;4.634;2023-11-19T03:09:59;100500.56;;;13.06
78859;BMP280;68210;52.032;4.634;2023-11-19T03:11:59;100505.97;;;13.03
78859;BMP280;68210;52.032;4.634;2023-11-19T03:13:59;100503.25;;;13.03
78859;BMP280;68210;52.032;4.634;2023-11-19T03:15:59;100497.81;;;13.03
78859;BMP280;68210;52.032;4.634;2023-11-19T03:18:00;100515.72;;;13.07
78859;BMP280;68210;52.032;4.634;2023-11-19T03:20:00;100492.38;;;13.03
78859;BMP280;68210;52.032;4.634;2023-11-19T03:22:01;100488.47;;;13.04
78859;BMP280;68210;52.032;4.634;2023-11-19T03:24:02;100484.19;;;13.03
78859;BMP280;68210;52.032;4.634;2023-11-19T03:26:03;100477.25;;;13.09
78859;BMP280;68210;52.032;4.634;2023-11-19T03:28:05;100472.16;;;13.04
78859;BMP280;68210;52.032;4.634;2023-11-19T03:30:07;100479.94;;;13.06
78859;BMP280;68210;52.032;4.634;2023-11-19T03:32:07;100476.41;;;13.02
78859;BMP280;68210;52.032;4.634;2023-11-19T03:34:07;100481.47;;;13.03
78859;BMP280;68210;52.032;4.634;2023-11-19T03:36:08;100485.41;;;13.06
78859;BMP280;68210;52.032;4.634;2023-11-19T03:38:09;100493.56;;;13.06
78859;BMP280;68210;52.032;4.634;2023-11-19T03:40:10;100499.38;;;13.04
78859;BMP280;68210;52.032;4.634;2023-11-19T03:42:11;100500.84;;;12.98
78859;BMP280;68210;52.032;4.634;2023-11-19T03:44:13;100514.44;;;12.95
78859;BMP280;68210;52.032;4.634;2023-11-19T03:46:20;100504.69;;;12.94
78859;BMP280;68210;52.032;4.634;2023-11-19T03:48:20;100489.94;;;12.95
78859;BMP280;68210;52.032;4.634;2023-11-19T03:50:21;100507.03;;;12.95
78859;BMP280;68210;52.032;4.634;2023-11-19T03:52:21;100498.78;;;12.88
78859;BMP280;68210;52.032;4.634;2023-11-19T03:54:22;100498.47;;;12.93
78859;BMP280;68210;52.032;4.634;2023-11-19T03:56:23;100485.69;;;12.97
78859;BMP280;68210;52.032;4.634;2023-11-19T03:58:23;100491.13;;;12.97
78859;BMP280;68210;52.032;4.634;2023-11-19T04:00:24;100509.69;;;12.88
78859;BMP280;68210;52.032;4.634;2023-11-19T04:02:24;100504.63;;;12.87
78859;BMP280;68210;52.032;4.634;2023-11-19T04:04:28;100501.50;;;12.88
78859;BMP280;68210;52.032;4.634;2023-11-19T04:06:29;100511.56;;;12.81
78859;BMP280;68210;52.032;4.634;2023-11-19T04:08:29;100510.00;;;12.83
78859;BMP280;68210;52.032;4.634;2023-11-19T04:10:30;100508.44;;;12.82
78859;BMP280;68210;52.032;4.634;2023-11-19T04:12:30;100521.63;;;12.80
78859;BMP280;68210;52.032;4.634;2023-11-19T04:14:31;100513.19;;;12.89
78859;BMP280;68210;52.032;4.634;2023-11-19T04:16:31;100512.69;;;12.80
78859;BMP280;68210;52.032;4.634;2023-11-19T04:18:31;100511.94;;;12.83
78859;BMP280;68210;52.032;4.634;2023-11-19T04:20:34;100511.19;;;12.86
78859;BMP280;68210;52.032;4.634;2023-11-19T04:22:34;100496.78;;;12.82
78859;BMP280;68210;52.032;4.634;2023-11-19T04:24:35;100513.13;;;12.85
78859;BMP280;68210;52.032;4.634;2023-11-19T04:26:35;100507.63;;;12.78
78859;BMP280;68210;52.032;4.634;2023-11-19T04:28:36;100503.34;;;12.77
78859;BMP280;68210;52.032;4.634;2023-11-19T04:30:37;100497.50;;;12.76
78859;BMP280;68210;52.032;4.634;2023-11-19T04:32:37;100504.03;;;12.74
78859;BMP280;68210;52.032;4.634;2023-11-19T04:34:38;100517.34;;;12.79
78859;BMP280;68210;52.032;4.634;2023-11-19T04:36:38;100517.00;;;12.81
78859;BMP280;68210;52.032;4.634;2023-11-19T04:38:39;100520.16;;;12.86
78859;BMP280;68210;52.032;4.634;2023-11-19T04:40:39;100506.16;;;12.84
78859;BMP280;68210;52.032;4.634;2023-11-19T04:42:40;100504.97;;;12.85
78859;BMP280;68210;52.032;4.634;2023-11-19T04:44:42;100506.56;;;12.86
78859;BMP280;68210;52.032;4.634;2023-11-19T04:46:43;100494.41;;;12.80
78859;BMP280;68210;52.032;4.634;2023-11-19T04:48:44;100503.88;;;12.90
78859;BMP280;68210;52.032;4.634;2023-11-19T04:50:44;100507.34;;;12.87
78859;BMP280;68210;52.032;4.634;2023-11-19T04:52:45;100504.56;;;12.83
78859;BMP280;68210;52.032;4.634;2023-11-19T04:54:45;100513.09;;;12.82
78859;BMP280;68210;52.032;4.634;2023-11-19T04:56:45;100509.22;;;12.83
78859;BMP280;68210;52.032;4.634;2023-11-19T04:58:47;100503.75;;;12.79
78859;BMP280;68210;52.032;4.634;2023-11-19T05:00:47;100517.78;;;12.81
78859;BMP280;68210;52.032;4.634;2023-11-19T05:02:47;100511.91;;;12.79
78859;BMP280;68210;52.032;4.634;2023-11-19T05:04:48;100523.22;;;12.81
78859;BMP280;68210;52.032;4.634;2023-11-19T05:06:49;100527.47;;;12.82
78859;BMP280;68210;52.032;4.634;2023-11-19T05:08:49;100520.81;;;12.76
78859;BMP280;68210;52.032;4.634;2023-11-19T05:10:50;100525.09;;;12.77
78859;BMP280;68210;52.032;4.634;2023-11-19T05:12:51;100516.16;;;12.77
78859;BMP280;68210;52.032;4.634;2023-11-19T05:14:51;100509.88;;;12.73
78859;BMP280;68210;52.032;4.634;2023-11-19T05:16:52;100507.56;;;12.75
78859;BMP280;68210;52.032;4.634;2023-11-19T05:18:52;100520.81;;;12.76
78859;BMP280;68210;52.032;4.634;2023-11-19T05:20:52;100526.97;;;12.74
78859;BMP280;68210;52.032;4.634;2023-11-19T05:22:53;100515.31;;;12.73
78859;BMP280;68210;52.032;4.634;2023-11-19T05:24:53;100519.53;;;12.71
78859;BMP280;68210;52.032;4.634;2023-11-19T05:26:54;100502.81;;;12.69
78859;BMP280;68210;52.032;4.634;2023-11-19T05:28:54;100493.84;;;12.65
78859;BMP280;68210;52.032;4.634;2023-11-19T05:30:55;100513.69;;;12.69
78859;BMP280;68210;52.032;4.634;2023-11-19T05:32:56;100516.44;;;12.72
78859;BMP280;68210;52.032;4.634;2023-11-19T05:34:56;100515.31;;;12.73
78859;BMP280;68210;52.032;4.634;2023-11-19T05:36:56;100509.06;;;12.73
78859;BMP280;68210;52.032;4.634;2023-11-19T05:38:57;100517.56;;;12.68
78859;BMP280;68210;52.032;4.634;2023-11-19T05:40:58;100521.44;;;12.67
78859;BMP280;68210;52.032;4.634;2023-11-19T05:42:58;100538.16;;;12.69
78859;BMP280;68210;52.032;4.634;2023-11-19T05:44:59;100531.56;;;12.70
78859;BMP280;68210;52.032;4.634;2023-11-19T05:46:59;100531.56;;;12.70
78859;BMP280;68210;52.032;4.634;2023-11-19T05:49:00;100521.84;;;12.69
78859;BMP280;68210;52.032;4.634;2023-11-19T05:51:00;100533.81;;;12.64
78859;BMP280;68210;52.032;4.634;2023-11-19T05:53:00;100519.00;;;12.58
78859;BMP280;68210;52.032;4.634;2023-11-19T05:55:01;100533.47;;;12.66
78859;BMP280;68210;52.032;4.634;2023-11-19T05:57:09;100522.16;;;12.64
78859;BMP280;68210;52.032;4.634;2023-11-19T05:59:09;100521.34;;;12.60
78859;BMP280;68210;52.032;4.634;2023-11-19T06:01:15;100531.81;;;12.58
78859;BMP280;68210;52.032;4.634;2023-11-19T06:03:16;100521.34;;;12.60
78859;BMP280;68210;52.032;4.634;2023-11-19T06:05:16;100534.22;;;12.63
78859;BMP280;68210;52.032;4.634;2023-11-19T06:07:17;100533.00;;;12.60
78859;BMP280;68210;52.032;4.634;2023-11-19T06:09:17;100509.72;;;12.63
78859;BMP280;68210;52.032;4.634;2023-11-19T06:11:18;100511.69;;;12.62
78859;BMP280;68210;52.032;4.634;2023-11-19T06:13:20;100513.19;;;12.60
78859;BMP280;68210;52.032;4.634;2023-11-19T06:15:21;100522.09;;;12.57
78859;BMP280;68210;52.032;4.634;2023-11-19T06:17:22;100503.44;;;12.59
78859;BMP280;68210;52.032;4.634;2023-11-19T06:19:22;100511.59;;;12.59
78859;BMP280;68210;52.032;4.634;2023-11-19T06:21:24;100510.84;;;12.58
78859;BMP280;68210;52.032;4.634;2023-11-19T06:23:25;100505.78;;;12.57
78859;BMP280;68210;52.032;4.634;2023-11-19T06:25:25;100513.94;;;12.57
78859;BMP280;68210;52.032;4.634;2023-11-19T06:27:26;100533.50;;;12.69
78859;BMP280;68210;52.032;4.634;2023-11-19T06:29:26;100529.56;;;12.63
78859;BMP280;68210;52.032;4.634;2023-11-19T06:31:26;100533.44;;;12.62
78859;BMP280;68210;52.032;4.634;2023-11-19T06:33:27;100534.50;;;12.54
78859;BMP280;68210;52.032;4.634;2023-11-19T06:35:27;100542.19;;;12.49
78859;BMP280;68210;52.032;4.634;2023-11-19T06:37:30;100539.13;;;12.54
78859;BMP280;68210;52.032;4.634;2023-11-19T06:39:30;100544.56;;;12.54
78859;BMP280;68210;52.032;4.634;2023-11-19T06:41:31;100539.13;;;12.54
78859;BMP280;68210;52.032;4.634;2023-11-19T06:43:31;100550.00;;;12.54
78859;BMP280;68210;52.032;4.634;2023-11-19T06:45:34;100553.88;;;12.53
78859;BMP280;68210;52.032;4.634;2023-11-19T06:47:34;100532.91;;;12.53
78859;BMP280;68210;52.032;4.634;2023-11-19T06:49:34;100552.41;;;12.59
78859;BMP280;68210;52.032;4.634;2023-11-19T06:51:35;100547.69;;;12.56
78859;BMP280;68210;52.032;4.634;2023-11-19T06:53:35;100557.91;;;12.62
78859;BMP280;68210;52.032;4.634;2023-11-19T06:55:36;100559.03;;;12.61
78859;BMP280;68210;52.032;4.634;2023-11-19T06:57:36;100557.84;;;12.59
78859;BMP280;68210;52.032;4.634;2023-11-19T06:59:37;100560.25;;;12.64
78859;BMP280;68210;52.032;4.634;2023-11-19T07:01:37;100566.41;;;12.61
78859;BMP280;68210;52.032;4.634;2023-11-19T07:03:38;100559.81;;;12.62
78859;BMP280;68210;52.032;4.634;2023-11-19T07:05:38;100563.69;;;12.61
78859;BMP280;68210;52.032;4.634;2023-11-19T07:07:38;100557.06;;;12.58
78859;BMP280;68210;52.032;4.634;2023-11-19T07:09:40;100561.09;;;12.68
78859;BMP280;68210;52.032;4.634;2023-11-19T07:11:41;100569.63;;;12.70
78859;BMP280;68210;52.032;4.634;2023-11-19T07:13:42;100563.88;;;12.74
78859;BMP280;68210;52.032;4.634;2023-11-19T07:15:42;100579.00;;;12.72
78859;BMP280;68210;52.032;4.634;2023-11-19T07:17:42;100568.13;;;12.72
78859;BMP280;68210;52.032;4.634;2023-11-19T07:19:45;100565.88;;;12.77
78859;BMP280;68210;52.032;4.634;2023-11-19T07:21:45;100556.59;;;12.78
78859;BMP280;68210;52.032;4.634;2023-11-19T07:23:46;100548.00;;;12.76
78859;BMP280;68210;52.032;4.634;2023-11-19T07:25:46;100562.09;;;12.85
78859;BMP280;68210;52.032;4.634;2023-11-19T07:27:47;100567.56;;;12.85
78859;BMP280;68210;52.032;4.634;2023-11-19T07:29:48;100561.69;;;12.83
78859;BMP280;68210;52.032;4.634;2023-11-19T07:31:49;100541.84;;;12.79
78859;BMP280;68210;52.032;4.634;2023-11-19T07:33:49;100554.50;;;12.98
78859;BMP280;68210;52.032;4.634;2023-11-19T07:35:49;100544.28;;;12.91
78859;BMP280;68210;52.032;4.634;2023-11-19T07:37:51;100552.91;;;12.97
78859;BMP280;68210;52.032;4.634;2023-11-19T07:39:51;100569.63;;;12.95
78859;BMP280;68210;52.032;4.634;2023-11-19T07:41:51;100576.31;;;13.01
78859;BMP280;68210;52.032;4.634;2023-11-19T07:43:52;100581.75;;;13.01
78859;BMP280;68210;52.032;4.634;2023-11-19T07:45:54;100572.41;;;13.02
78859;BMP280;68210;52.032;4.634;2023-11-19T07:47:55;100569.25;;;12.97
78859;BMP280;68210;52.032;4.634;2023-11-19T07:49:55;100563.53;;;13.05
78859;BMP280;68210;52.032;4.634;2023-11-19T07:51:55;100558.44;;;13.36
78859;BMP280;68210;52.032;4.634;2023-11-19T07:53:56;100564.56;;;13.66
78859;BMP280;68210;52.032;4.634;2023-11-19T07:55:56;100560.81;;;13.80
78859;BMP280;68210;52.032;4.634;2023-11-19T07:57:56;100563.97;;;13.86
78859;BMP280;68210;52.032;4.634;2023-11-19T07:59:57;100565.47;;;13.80
78859;BMP280;68210;52.032;4.634;2023-11-19T08:01:57;100565.50;;;13.83
78859;BMP280;68210;52.032;4.634;2023-11-19T08:03:58;100564.16;;;14.06
78859;BMP280;68210;52.032;4.634;2023-11-19T08:05:58;100565.75;;;14.07
78859;BMP280;68210;52.032;4.634;2023-11-19T08:07:59;100569.69;;;14.17
78859;BMP280;68210;52.032;4.634;2023-11-19T08:09:59;100579.22;;;14.40
78859;BMP280;68210;52.032;4.634;2023-11-19T08:12:00;100576.91;;;14.42
78859;BMP280;68210;52.032;4.634;2023-11-19T08:14:00;100581.19;;;14.43
78859;BMP280;68210;52.032;4.634;2023-11-19T08:16:01;100586.03;;;14.70
78859;BMP280;68210;52.032;4.634;2023-11-19T08:18:01;100567.97;;;15.22
78859;BMP280;68210;52.032;4.634;2023-11-19T08:20:02;100555.22;;;14.69
78859;BMP280;68210;52.032;4.634;2023-11-19T08:22:03;100578.59;;;14.63
78859;BMP280;68210;52.032;4.634;2023-11-19T08:24:03;100580.84;;;14.55
78859;BMP280;68210;52.032;4.634;2023-11-19T08:26:05;100575.38;;;14.48
78859;BMP280;68210;52.032;4.634;2023-11-19T08:28:05;100567.59;;;14.50
78859;BMP280;68210;52.032;4.634;2023-11-19T08:30:06;100582.41;;;14.52
78859;BMP280;68210;52.032;4.634;2023-11-19T08:32:06;100574.19;;;14.45
78859;BMP280;68210;52.032;4.634;2023-11-19T08:34:07;100575.38;;;14.48
78859;BMP280;68210;52.032;4.634;2023-11-19T08:36:15;100568.81;;;14.56
78859;BMP280;68210;52.032;4.634;2023-11-19T08:38:16;100569.09;;;14.44
78859;BMP280;68210;52.032;4.634;2023-11-19T08:40:16;100565.59;;;14.40
78859;BMP280;68210;52.032;4.634;2023-11-19T08:42:17;100574.94;;;14.39
78859;BMP280;68210;52.032;4.634;2023-11-19T08:44:17;100566.81;;;14.49
78859;BMP280;68210;52.032;4.634;2023-11-19T08:46:19;100557.81;;;14.45
78859;BMP280;68210;52.032;4.634;2023-11-19T08:48:20;100558.66;;;14.53
78859;BMP280;68210;52.032;4.634;2023-11-19T08:50:20;100578.19;;;14.61
78859;BMP280;68210;52.032;4.634;2023-11-19T08:52:21;100565.66;;;14.50
78859;BMP280;68210;52.032;4.634;2023-11-19T08:54:21;100569.50;;;14.46
78859;BMP280;68210;52.032;4.634;2023-11-19T08:56:23;100565.25;;;14.48
78859;BMP280;68210;52.032;4.634;2023-11-19T08:58:23;100552.00;;;14.50
78859;BMP280;68210;52.032;4.634;2023-11-19T09:00:23;100539.09;;;14.44
78859;BMP280;68210;52.032;4.634;2023-11-19T09:02:23;100560.63;;;14.56
78859;BMP280;68210;52.032;4.634;2023-11-19T09:04:24;100566.88;;;14.59
78859;BMP280;68210;52.032;4.634;2023-11-19T09:06:24;100567.59;;;14.50
78859;BMP280;68210;52.032;4.634;2023-11-19T09:08:24;100571.97;;;14.64
78859;BMP280;68210;52.032;4.634;2023-11-19T09:10:25;100570.84;;;14.76
78859;BMP280;68210;52.032;4.634;2023-11-19T09:12:26;100560.81;;;14.90
78859;BMP280;68210;52.032;4.634;2023-11-19T09:14:27;100564.34;;;15.08
78859;BMP280;68210;52.032;4.634;2023-11-19T09:16:27;100562.88;;;15.17
78859;BMP280;68210;52.032;4.634;2023-11-19T09:18:34;100568.72;;;15.16
78859;BMP280;68210;52.032;4.634;2023-11-19T09:20:35;100563.66;;;15.18
78859;BMP280;68210;52.032;4.634;2023-11-19T09:22:38;100574.94;;;15.13
78859;BMP280;68210;52.032;4.634;2023-11-19T09:24:38;100548.75;;;15.05
78859;BMP280;68210;52.032;4.634;2023-11-19T09:26:39;100571.78;;;15.04
78859;BMP280;68210;52.032;4.634;2023-11-19T09:28:41;100571.72;;;14.93
78859;BMP280;68210;52.032;4.634;2023-11-19T09:30:41;100572.91;;;14.96
78859;BMP280;68210;52.032;4.634;2023-11-19T09:32:42;100573.69;;;14.93
78859;BMP280;68210;52.032;4.634;2023-11-19T09:34:42;100571.75;;;15.00
78859;BMP280;68210;52.032;4.634;2023-11-19T09:36:42;100579.44;;;14.81
78859;BMP280;68210;52.032;4.634;2023-11-19T09:38:44;100566.94;;;14.70
78859;BMP280;68210;52.032;4.634;2023-11-19T09:40:44;100572.44;;;14.77
78859;BMP280;68210;52.032;4.634;2023-11-19T09:42:45;100565.44;;;14.79
78859;BMP280;68210;52.032;4.634;2023-11-19T09:44:48;100572.50;;;14.87
78859;BMP280;68210;52.032;4.634;2023-11-19T09:46:49;100563.25;;;15.12
78859;BMP280;68210;52.032;4.634;2023-11-19T09:48:51;100561.00;;;15.38
78859;BMP280;68210;52.032;4.634;2023-11-19T09:50:54;100557.88;;;15.50
78859;BMP280;68210;52.032;4.634;2023-11-19T09:52:55;100558.69;;;15.61
78859;BMP280;68210;52.032;4.634;2023-11-19T09:54:55;100560.66;;;15.81
78859;BMP280;68210;52.032;4.634;2023-11-19T09:56:57;100561.78;;;15.56
78859;BMP280;68210;52.032;4.634;2023-11-19T09:59:02;100554.78;;;15.55
78859;BMP280;68210;52.032;4.634;2023-11-19T10:01:03;100550.84;;;15.59
78859;BMP280;68210;52.032;4.634;2023-11-19T10:03:08;100576.28;;;15.70
78859;BMP280;68210;52.032;4.634;2023-11-19T10:05:11;100557.16;;;15.70
78859;BMP280;68210;52.032;4.634;2023-11-19T10:07:13;100549.31;;;15.58
78859;BMP280;68210;52.032;4.634;2023-11-19T10:09:13;100567.25;;;15.49
78859;BMP280;68210;52.032;4.634;2023-11-19T10:11:15;100541.88;;;15.45
78859;BMP280;68210;52.032;4.634;2023-11-19T10:13:17;100549.31;;;15.55
78859;BMP280;68210;52.032;4.634;2023-11-19T10:15:21;100557.13;;;15.67
78859;BMP280;68210;52.032;4.634;2023-11-19T10:17:27;100564.94;;;15.75
78859;BMP280;68210;52.032;4.634;2023-11-19T10:19:29;100563.00;;;15.82
78859;BMP280;68210;52.032;4.634;2023-11-19T10:21:32;100562.59;;;15.91
78859;BMP280;68210;52.032;4.634;2023-11-19T10:23:51;100559.47;;;15.99
78859;BMP280;68210;52.032;4.634;2023-11-19T10:25:53;100547.00;;;15.95
78859;BMP280;68210;52.032;4.634;2023-11-19T10:27:54;100541.50;;;16.12
78859;BMP280;68210;52.032;4.634;2023-11-19T10:29:59;100543.13;;;16.13
78859;BMP280;68210;52.032;4.634;2023-11-19T10:32:00;100540.38;;;16.13
78859;BMP280;68210;52.032;4.634;2023-11-19T10:34:00;100544.66;;;16.04
78859;BMP280;68210;52.032;4.634;2023-11-19T10:36:01;100541.94;;;16.17
78859;BMP280;68210;52.032;4.634;2023-11-19T10:38:13;100551.31;;;16.27
78859;BMP280;68210;52.032;4.634;2023-11-19T10:40:14;100533.69;;;16.38
78859;BMP280;68210;52.032;4.634;2023-11-19T10:42:15;100546.22;;;16.22
78859;BMP280;68210;52.032;4.634;2023-11-19T10:44:32;100530.59;;;16.15
78859;BMP280;68210;52.032;4.634;2023-11-19T10:46:40;100537.63;;;15.96
78859;BMP280;68210;52.032;4.634;2023-11-19T10:48:40;100528.25;;;15.93
78859;BMP280;68210;52.032;4.634;2023-11-19T10:50:42;100556.38;;;16.01
78859;BMP280;68210;52.032;4.634;2023-11-19T10:52:44;100539.59;;;15.92
78859;BMP280;68210;52.032;4.634;2023-11-19T10:54:49;100519.66;;;15.88
78859;BMP280;68210;52.032;4.634;2023-11-19T10:56:54;100542.31;;;15.92
78859;BMP280;68210;52.032;4.634;2023-11-19T10:58:55;100534.50;;;15.80
78859;BMP280;68210;52.032;4.634;2023-11-19T11:01:01;100541.91;;;15.83
78859;BMP280;68210;52.032;4.634;2023-11-19T11:03:11;100533.31;;;15.78
78859;BMP280;68210;52.032;4.634;2023-11-19T11:05:14;100551.66;;;15.63
78859;BMP280;68210;52.032;4.634;2023-11-19T11:07:15;100541.88;;;15.59
78859;BMP280;68210;52.032;4.634;2023-11-19T11:09:16;100555.22;;;15.81
78859;BMP280;68210;52.032;4.634;2023-11-19T11:11:16;100534.47;;;15.70
78859;BMP280;68210;52.032;4.634;2023-11-19T11:13:18;100536.84;;;15.75
78859;BMP280;68210;52.032;4.634;2023-11-19T11:15:19;100547.38;;;15.80
78859;BMP280;68210;52.032;4.634;2023-11-19T11:17:24;100520.03;;;15.69
78859;BMP280;68210;52.032;4.634;2023-11-19T11:19:26;100531.38;;;15.68
78859;BMP280;68210;52.032;4.634;2023-11-19T11:21:27;100543.09;;;15.68
78859;BMP280;68210;52.032;4.634;2023-11-19T11:23:52;100539.16;;;15.73
78859;BMP280;68210;52.032;4.634;2023-11-19T11:26:10;100531.38;;;15.75
78859;BMP280;68210;52.032;4.634;2023-11-19T11:28:25;100516.53;;;15.69
78859;BMP280;68210;52.032;4.634;2023-11-19T11:30:55;100525.13;;;15.71